Time;durP1;ratioP1;P1;durP2;ratioP2;P2;SDS_P1;SDS_P2;PMS_P1;PMS_P2;Temp;Humidity;BMP_temperature;BMP_pressure;BME280_temperature;BME280_humidity;BME280_pressure;Samples;Min_cycle;Max_cycle;Signal;HPM_P1;HPM_P2
2022/05/08 00:00:43;;;;;;;6.30;3.90;;;23.20;55.20;;;;;;220173;1268;22707;-50
2022/05/08 00:05:51;;;;;;;6.20;3.50;;;23.20;55.10;;;;;;220360;1268;22720;-49
2022/05/08 00:11:11;;;;;;;7.50;3.60;;;23.20;55.10;;;;;;220063;1268;24261;-49
2022/05/08 00:16:19;;;;;;;8.40;4.00;;;23.20;55.10;;;;;;220222;1268;25234;-49
2022/05/08 00:21:23;;;;;;;5.50;3.50;;;23.20;55.00;;;;;;220578;1268;25222;-48
2022/05/08 00:26:26;;;;;;;8.40;4.20;;;23.20;55.00;;;;;;220049;1268;22531;-50
2022/05/08 00:31:30;;;;;;;7.10;3.90;;;23.10;55.00;;;;;;219954;1268;24221;-49
2022/05/08 00:36:34;;;;;;;6.20;3.80;;;23.10;55.00;;;;;;220077;1268;25451;-51
2022/05/08 00:41:38;;;;;;;6.90;3.30;;;23.00;55.00;;;;;;219811;1268;22597;-49
2022/05/08 00:46:43;;;;;;;6.30;3.70;;;23.00;55.00;;;;;;220034;1268;25544;-48
2022/05/08 00:51:49;;;;;;;7.30;3.80;;;23.00;55.00;;;;;;219963;1270;22816;-53
2022/05/08 00:56:54;;;;;;;6.80;3.40;;;23.00;55.00;;;;;;219845;1270;22894;-49
2022/05/08 01:01:58;;;;;;;6.90;3.60;;;23.00;55.00;;;;;;219880;1270;25773;-49
2022/05/08 01:07:02;;;;;;;5.90;3.70;;;23.00;55.40;;;;;;220254;1267;25287;-48
2022/05/08 01:12:07;;;;;;;6.60;3.50;;;22.90;55.30;;;;;;220135;1267;22548;-48
2022/05/08 01:17:14;;;;;;;5.00;3.50;;;23.00;55.10;;;;;;220432;1270;25659;-50
2022/05/08 01:22:18;;;;;;;5.50;3.40;;;23.00;55.10;;;;;;220807;1267;24227;-50
2022/05/08 01:27:23;;;;;;;5.00;3.10;;;22.90;55.10;;;;;;220392;1267;22610;-50
2022/05/08 01:32:27;;;;;;;6.60;3.80;;;22.90;54.90;;;;;;220169;1267;25413;-65
2022/05/08 01:37:31;;;;;;;6.00;3.60;;;22.90;55.50;;;;;;220059;1267;27791;-47
2022/05/08 01:42:35;;;;;;;6.40;3.80;;;22.90;55.10;;;;;;220023;1267;22565;-50
2022/05/08 01:53:02;;;;;;;4.40;3.20;;;22.80;55.30;;;;;;220476;1267;22690;-51
2022/05/08 01:58:07;;;;;;;4.70;3.40;;;22.80;55.10;;;;;;220085;1268;22564;-47
2022/05/08 02:03:12;;;;;;;5.90;3.40;;;22.80;55.30;;;;;;219947;1268;25331;-47
2022/05/08 02:08:16;;;;;;;5.50;3.80;;;22.80;55.60;;;;;;220002;1268;24304;-49
2022/05/08 02:13:23;;;;;;;5.40;3.60;;;22.80;55.30;;;;;;220715;1268;22544;-51
2022/05/08 02:18:28;;;;;;;5.70;3.60;;;22.80;55.20;;;;;;220303;1270;24310;-48
2022/05/08 02:23:33;;;;;;;6.90;3.70;;;22.70;55.20;;;;;;220179;1269;25533;-46
2022/05/08 02:28:37;;;;;;;4.20;3.10;;;22.80;55.60;;;;;;220005;1268;22554;-48
2022/05/08 02:33:41;;;;;;;5.00;3.50;;;22.70;55.30;;;;;;219901;1270;22538;-49
2022/05/08 02:38:47;;;;;;;6.40;3.90;;;22.70;55.30;;;;;;220461;1267;22544;-51
2022/05/08 02:43:51;;;;;;;5.60;3.50;;;22.70;55.30;;;;;;220043;1268;22535;-49
2022/05/08 02:48:55;;;;;;;6.30;3.60;;;22.70;55.30;;;;;;220187;1268;25475;-48
2022/05/08 02:53:59;;;;;;;5.50;3.50;;;22.70;55.70;;;;;;220059;1269;22529;-51
2022/05/08 02:59:03;;;;;;;5.70;3.70;;;22.60;55.30;;;;;;219823;1270;24359;-48
2022/05/08 03:04:07;;;;;;;5.20;3.30;;;22.60;54.90;;;;;;220718;1268;22561;-49
2022/05/08 03:09:10;;;;;;;5.50;3.50;;;22.60;55.30;;;;;;220133;1268;22533;-47
2022/05/08 03:14:15;;;;;;;5.40;3.50;;;22.60;55.30;;;;;;220370;1268;25223;-51
2022/05/08 03:19:21;;;;;;;5.30;3.60;;;22.60;55.30;;;;;;219972;1268;23760;-49
2022/05/08 03:24:28;;;;;;;5.40;3.50;;;22.60;55.40;;;;;;220097;1270;22546;-49
2022/05/08 03:29:31;;;;;;;4.90;3.40;;;22.50;55.30;;;;;;220120;1268;23959;-49
2022/05/08 03:34:35;;;;;;;5.00;3.40;;;22.50;55.60;;;;;;219933;1268;24204;-45
2022/05/08 03:39:39;;;;;;;5.10;3.50;;;22.50;55.40;;;;;;219983;1268;24424;-46
2022/05/08 03:44:43;;;;;;;5.30;3.90;;;22.50;55.40;;;;;;219932;1268;23900;-49
2022/05/08 03:49:47;;;;;;;5.40;3.90;;;22.50;55.70;;;;;;220031;1268;22543;-52
2022/05/08 03:54:51;;;;;;;5.30;3.10;;;22.50;55.40;;;;;;220052;1269;24402;-49
2022/05/08 03:59:55;;;;;;;5.20;3.70;;;22.50;56.10;;;;;;219999;1270;24192;-51
2022/05/08 04:05:00;;;;;;;5.90;3.40;;;22.50;55.50;;;;;;220178;1270;24299;-45
2022/05/08 04:10:05;;;;;;;6.70;3.60;;;22.50;55.50;;;;;;220373;1270;24211;-47
2022/05/08 04:20:32;;;;;;;6.40;3.30;;;22.50;55.60;;;;;;220252;1267;22543;-49
2022/05/08 04:25:36;;;;;;;4.70;3.40;;;22.50;55.60;;;;;;220172;1267;22529;-50
2022/05/08 04:30:40;;;;;;;5.60;4.00;;;22.50;55.60;;;;;;220229;1267;22532;-51
2022/05/08 04:35:44;;;;;;;5.60;3.60;;;22.50;55.70;;;;;;220092;1267;25361;-51
2022/05/08 04:40:48;;;;;;;5.50;3.50;;;22.50;55.70;;;;;;220054;1269;25411;-53
2022/05/08 04:45:52;;;;;;;5.60;3.60;;;22.40;56.00;;;;;;220002;1269;22528;-48
2022/05/08 04:50:56;;;;;;;5.80;3.60;;;22.50;55.80;;;;;;220247;1269;22539;-45
2022/05/08 04:56:00;;;;;;;4.80;3.40;;;22.40;55.70;;;;;;219888;1270;22610;-50
2022/05/08 05:01:05;;;;;;;6.60;3.50;;;22.40;55.70;;;;;;220087;1270;24431;-46
2022/05/08 05:06:10;;;;;;;5.50;3.50;;;22.40;56.30;;;;;;220282;1268;22532;-49
2022/05/08 05:11:14;;;;;;;4.70;3.40;;;22.40;56.00;;;;;;220489;1268;24291;-50
2022/05/08 05:16:17;;;;;;;5.80;4.00;;;22.40;55.60;;;;;;219911;1268;24303;-48
2022/05/08 05:21:22;;;;;;;4.20;3.20;;;22.40;55.60;;;;;;220716;1267;25247;-50
2022/05/08 05:26:26;;;;;;;5.10;3.40;;;22.40;55.60;;;;;;220523;1270;22512;-48
2022/05/08 05:31:30;;;;;;;5.70;3.80;;;22.50;55.60;;;;;;220808;1268;24485;-51
2022/05/08 05:36:34;;;;;;;6.60;3.60;;;22.40;55.50;;;;;;219912;1270;22598;-53
2022/05/08 05:41:38;;;;;;;6.00;4.10;;;22.40;55.80;;;;;;220296;1268;25242;-49
2022/05/08 05:52:08;;;;;;;4.70;3.20;;;22.50;55.30;;;;;;220108;1271;23466;-47
2022/05/08 05:57:11;;;;;;;6.30;3.80;;;22.40;55.50;;;;;;220037;1270;25267;-48
2022/05/08 06:02:19;;;;;;;5.00;3.50;;;22.50;55.40;;;;;;219912;1270;23794;-47
2022/05/08 06:07:23;;;;;;;7.30;3.80;;;22.50;55.30;;;;;;219996;1268;22525;-50
2022/05/08 06:12:27;;;;;;;5.60;3.80;;;22.50;55.30;;;;;;220340;1271;22635;-47
2022/05/08 06:17:32;;;;;;;5.10;3.60;;;22.50;55.10;;;;;;220292;1270;24382;-50
2022/05/08 06:22:37;;;;;;;4.80;3.40;;;22.50;55.10;;;;;;220353;1270;22725;-47
2022/05/08 06:27:41;;;;;;;5.00;3.50;;;22.50;55.10;;;;;;220304;1268;22682;-53
2022/05/08 06:32:49;;;;;;;6.40;3.50;;;22.60;55.10;;;;;;220339;1270;22522;-49
2022/05/08 06:38:13;;;;;;;6.60;3.60;;;22.60;55.40;;;;;;220287;1269;24931;-53
2022/05/08 06:43:17;;;;;;;5.20;3.60;;;22.60;55.30;;;;;;220378;1270;22534;-51
2022/05/08 06:48:21;;;;;;;6.00;3.60;;;22.60;55.50;;;;;;220225;1270;22695;-54
2022/05/08 06:53:26;;;;;;;5.30;3.80;;;22.60;55.60;;;;;;220137;1270;22540;-51
2022/05/08 07:01:34;;;;;;;4.60;3.60;;;22.60;55.70;;;;;;220085;1270;24907;-53
2022/05/08 07:03:57;;;;;;;6.00;3.20;;;22.60;56.10;;;;;;220351;1270;24294;-52
2022/05/08 07:09:03;;;;;;;6.00;3.20;;;22.60;55.80;;;;;;220072;1268;25546;-51
2022/05/08 07:14:07;;;;;;;4.40;3.30;;;22.60;55.70;;;;;;220225;1267;22561;-53
2022/05/08 07:19:11;;;;;;;5.60;3.40;;;22.70;55.70;;;;;;220596;1267;252313;-52
2022/05/08 07:24:15;;;;;;;8.30;4.00;;;22.70;56.00;;;;;;219967;1270;22648;-53
2022/05/08 07:29:22;;;;;;;5.10;3.40;;;22.80;56.50;;;;;;220097;1269;25372;-51
2022/05/08 07:39:55;;;;;;;5.10;3.20;;;22.90;56.10;;;;;;220173;1268;25351;-51
2022/05/08 07:44:59;;;;;;;7.20;3.50;;;22.90;56.20;;;;;;220276;1270;24366;-51
2022/05/08 07:50:04;;;;;;;5.50;3.50;;;22.90;55.80;;;;;;219880;1270;25493;-51
2022/05/08 07:55:09;;;;;;;15.20;3.60;;;22.90;55.90;;;;;;220079;1268;25373;-49
2022/05/08 08:00:14;;;;;;;4.90;3.30;;;22.90;55.80;;;;;;220359;1267;25302;-49
2022/05/08 08:05:22;;;;;;;7.30;3.20;;;22.90;56.20;;;;;;220066;1270;22582;-53
2022/05/08 08:10:29;;;;;;;5.30;3.20;;;23.00;55.80;;;;;;220153;1270;24287;-52
2022/05/08 08:15:36;;;;;;;4.80;3.10;;;23.00;56.00;;;;;;219987;1267;22610;-55
2022/05/08 08:20:44;;;;;;;5.60;3.50;;;23.00;55.70;;;;;;220005;1270;22626;-54
2022/05/08 08:25:49;;;;;;;6.40;2.90;;;23.10;55.90;;;;;;220045;1270;25454;-52
2022/05/08 08:30:53;;;;;;;5.90;3.40;;;23.10;55.70;;;;;;220042;1267;22561;-50
2022/05/08 08:36:00;;;;;;;4.20;3.00;;;23.20;55.70;;;;;;220158;1270;24231;-51
2022/05/08 08:41:09;;;;;;;7.10;3.10;;;23.20;55.80;;;;;;219416;1267;22526;-52
2022/05/08 08:51:45;;;;;;;6.10;3.50;;;23.30;55.80;;;;;;227800;1271;22297;-49
2022/05/08 08:56:49;;;;;;;8.00;4.00;;;23.30;55.80;;;;;;227642;1268;22511;-53
2022/05/08 09:02:00;;;;;;;20.00;5.60;;;23.30;55.10;;;;;;227749;1270;23152;-54
2022/05/08 09:07:38;;;;;;;13.40;5.90;;;23.40;59.00;;;;;;227728;1270;22437;-50
2022/05/08 09:12:45;;;;;;;13.20;5.40;;;23.40;56.90;;;;;;227625;1267;22440;-53
2022/05/08 09:17:52;;;;;;;11.30;5.50;;;23.50;54.70;;;;;;227451;1268;22484;-52
2022/05/08 09:23:21;;;;;;;14.00;5.80;;;23.50;54.00;;;;;;226148;1270;24275;-58
2022/05/08 09:28:43;;;;;;;11.90;5.50;;;23.50;54.80;;;;;;221837;1269;24216;-56
2022/05/08 09:33:53;;;;;;;8.90;5.30;;;23.60;54.10;;;;;;220233;1270;22539;-56
2022/05/08 09:39:09;;;;;;;10.50;5.20;;;23.50;53.30;;;;;;219989;1271;25295;-57
2022/05/08 09:44:58;;;;;;;10.00;5.20;;;23.50;52.90;;;;;;220248;1270;24293;-57
2022/05/08 09:50:28;;;;;;;11.30;5.20;;;23.50;51.40;;;;;;220323;1271;25418;-57
2022/05/08 09:55:48;;;;;;;10.80;5.00;;;23.50;52.30;;;;;;220163;1271;23910;-52
2022/05/08 10:00:54;;;;;;;10.00;4.70;;;23.60;52.10;;;;;;219832;1271;22968;-50
2022/05/08 10:06:00;;;;;;;10.80;5.10;;;23.60;52.10;;;;;;220648;1268;26921;-56
2022/05/08 10:16:47;;;;;;;7.90;4.80;;;23.80;51.90;;;;;;219981;1271;23082;-55
2022/05/08 10:21:59;;;;;;;6.80;4.40;;;23.90;52.40;;;;;;219743;1268;25516;-58
2022/05/08 10:27:29;;;;;;;9.20;5.50;;;23.90;53.00;;;;;;219763;1271;22915;-56
2022/05/08 10:32:33;;;;;;;12.90;5.20;;;23.80;52.20;;;;;;219789;1270;27122;-57
2022/05/08 10:37:44;;;;;;;8.10;5.30;;;23.90;51.90;;;;;;219985;1268;24372;-57
2022/05/08 10:42:49;;;;;;;12.50;5.20;;;24.10;51.40;;;;;;220196;1271;22649;-55
2022/05/08 10:47:52;;;;;;;9.80;4.90;;;24.00;51.50;;;;;;221974;1269;24424;-58
2022/05/08 10:52:58;;;;;;;8.10;4.90;;;24.10;48.60;;;;;;220688;1271;24456;-62
2022/05/08 10:58:07;;;;;;;10.50;4.90;;;24.20;49.20;;;;;;220113;1268;22645;-56
2022/05/08 11:03:19;;;;;;;21.60;5.40;;;24.10;48.90;;;;;;222351;1268;22575;-59
2022/05/08 11:08:28;;;;;;;9.60;4.80;;;24.10;48.70;;;;;;220232;1269;22544;-54
2022/05/08 11:13:42;;;;;;;12.90;4.40;;;23.90;48.10;;;;;;220350;1269;22549;-57
2022/05/08 11:18:46;;;;;;;11.00;4.30;;;23.90;48.50;;;;;;222039;1268;24398;-55
2022/05/08 11:23:49;;;;;;;6.90;4.10;;;23.90;48.40;;;;;;220084;1268;25259;-53
2022/05/08 11:28:57;;;;;;;10.10;4.30;;;23.80;47.90;;;;;;220343;1268;22556;-57
2022/05/08 11:39:24;;;;;;;7.30;3.60;;;23.70;47.90;;;;;;220006;1268;22546;-56
2022/05/08 11:44:28;;;;;;;6.60;4.00;;;23.70;47.90;;;;;;220262;1268;22544;-56
2022/05/08 11:49:32;;;;;;;7.10;3.50;;;23.70;47.90;;;;;;220380;1268;22757;-55
2022/05/08 11:54:38;;;;;;;6.70;3.80;;;23.70;47.90;;;;;;220309;1268;25400;-58
2022/05/08 11:59:47;;;;;;;6.50;3.20;;;23.70;48.50;;;;;;220037;1268;22639;-58
2022/05/08 12:05:02;;;;;;;6.80;3.30;;;23.60;47.80;;;;;;220271;1268;22583;-57
2022/05/08 12:10:10;;;;;;;11.30;5.20;;;23.60;48.30;;;;;;220081;1268;22541;-53
2022/05/08 12:15:20;;;;;;;6.20;3.90;;;23.70;49.00;;;;;;220687;1268;22833;-56
2022/05/08 12:20:26;;;;;;;10.60;4.10;;;23.70;51.00;;;;;;220004;1270;22542;-56
2022/05/08 12:25:37;;;;;;;5.30;3.20;;;23.70;50.80;;;;;;220811;1267;22692;-59
2022/05/08 12:30:44;;;;;;;5.60;3.40;;;23.70;49.50;;;;;;220479;1267;24276;-58
2022/05/08 12:35:55;;;;;;;5.10;3.10;;;23.70;49.30;;;;;;220567;1268;24204;-57
2022/05/08 12:41:08;;;;;;;6.90;3.30;;;23.60;48.60;;;;;;220343;1268;22529;-56
2022/05/08 12:46:14;;;;;;;6.00;3.50;;;23.60;48.30;;;;;;220309;1268;24293;-57
2022/05/08 12:51:19;;;;;;;4.90;3.10;;;23.60;48.00;;;;;;220415;1268;22579;-58
2022/05/08 12:56:25;;;;;;;3.70;2.70;;;23.60;48.10;;;;;;220246;1268;25376;-57
2022/05/08 13:01:34;;;;;;;4.70;2.50;;;23.50;48.80;;;;;;219946;1268;24371;-59
2022/05/08 13:06:38;;;;;;;7.90;3.20;;;23.50;48.40;;;;;;220452;1268;22592;-58
2022/05/08 13:11:42;;;;;;;4.90;2.70;;;23.50;48.00;;;;;;220139;1268;22676;-56
2022/05/08 13:16:49;;;;;;;5.30;2.80;;;23.50;47.90;;;;;;220414;1267;24415;-58
2022/05/08 13:21:54;;;;;;;4.50;2.20;;;23.50;47.90;;;;;;220376;1267;22531;-57
2022/05/08 13:26:59;;;;;;;3.50;2.40;;;23.50;47.80;;;;;;220487;1267;25338;-58
2022/05/08 13:32:03;;;;;;;5.80;2.20;;;23.50;47.50;;;;;;220300;1267;24254;-57
2022/05/08 13:37:08;;;;;;;9.60;2.60;;;23.50;47.20;;;;;;220467;1267;24479;-55
2022/05/08 13:42:15;;;;;;;4.10;2.30;;;23.40;46.80;;;;;;220213;1267;22806;-56
2022/05/08 13:47:20;;;;;;;4.80;2.30;;;23.50;46.60;;;;;;220000;1270;22739;-55
2022/05/08 13:52:25;;;;;;;5.70;2.20;;;23.50;46.30;;;;;;220007;1270;24489;-58
2022/05/08 13:57:35;;;;;;;3.00;1.90;;;23.40;47.00;;;;;;220143;1270;23777;-58
2022/05/08 14:02:39;;;;;;;3.90;2.20;;;23.40;46.50;;;;;;219756;1270;25616;-54
2022/05/08 14:07:43;;;;;;;5.50;2.40;;;23.40;46.50;;;;;;220001;1270;22538;-58
2022/05/08 14:12:48;;;;;;;4.20;2.00;;;23.40;46.10;;;;;;220089;1270;24288;-57
2022/05/08 14:17:51;;;;;;;4.20;2.00;;;23.40;46.70;;;;;;220051;1270;22722;-59
2022/05/08 14:22:57;;;;;;;6.60;1.90;;;23.30;46.10;;;;;;219893;1270;24387;-59
2022/05/08 14:28:01;;;;;;;6.80;2.10;;;23.30;46.00;;;;;;220099;1270;22561;-55
2022/05/08 14:38:34;;;;;;;3.10;1.80;;;23.30;46.70;;;;;;220720;1268;22619;-56
2022/05/08 14:43:44;;;;;;;6.10;2.20;;;23.30;46.10;;;;;;220256;1268;22674;-58
2022/05/08 14:48:48;;;;;;;2.90;1.60;;;23.30;46.30;;;;;;220200;1268;25550;-58
2022/05/08 14:53:56;;;;;;;3.50;1.80;;;23.30;46.30;;;;;;220176;1268;22617;-58
2022/05/08 14:59:04;;;;;;;3.10;1.80;;;23.20;46.00;;;;;;220329;1268;26574;-57
2022/05/08 15:04:11;;;;;;;3.20;1.60;;;23.20;46.50;;;;;;220157;1269;22612;-55
2022/05/08 15:09:16;;;;;;;2.90;1.70;;;23.30;46.00;;;;;;220231;1268;22612;-56
2022/05/08 15:14:23;;;;;;;3.20;1.70;;;23.20;45.90;;;;;;220384;1268;22579;-56
2022/05/08 15:19:35;;;;;;;4.30;1.80;;;23.20;46.20;;;;;;220319;1267;22541;-57
2022/05/08 15:24:40;;;;;;;3.40;2.00;;;23.20;46.50;;;;;;220018;1268;22550;-58
2022/05/08 15:29:46;;;;;;;3.00;1.90;;;23.10;46.40;;;;;;220040;1268;22623;-57
2022/05/08 15:34:57;;;;;;;4.20;1.60;;;23.10;46.50;;;;;;219816;1270;22553;-56
2022/05/08 15:40:33;;;;;;;4.40;1.60;;;23.10;46.50;;;;;;219939;1270;22541;-56
2022/05/08 15:46:00;;;;;;;4.20;1.70;;;23.00;46.50;;;;;;220338;1270;22565;-57
2022/05/08 15:51:21;;;;;;;5.00;2.00;;;23.00;46.70;;;;;;219996;1270;25420;-57
2022/05/08 15:56:25;;;;;;;4.40;2.00;;;22.90;47.20;;;;;;220408;1270;22531;-56
2022/05/08 16:01:29;;;;;;;2.50;1.80;;;22.90;46.90;;;;;;220014;1270;22532;-56
2022/05/08 16:06:40;;;;;;;4.00;2.10;;;22.90;46.90;;;;;;219752;1270;22727;-58
2022/05/08 16:11:46;;;;;;;3.60;1.80;;;22.90;46.90;;;;;;220040;1270;24380;-56
2022/05/08 16:27:51;;;;;;;4.90;2.00;;;22.90;47.00;;;;;;220204;1270;22868;-55
2022/05/08 16:32:59;;;;;;;4.50;2.20;;;22.80;47.50;;;;;;220382;1268;22824;-57
2022/05/08 16:38:08;;;;;;;6.10;1.90;;;22.90;47.20;;;;;;220236;1268;24465;-56
2022/05/08 16:43:11;;;;;;;3.80;1.70;;;22.90;47.10;;;;;;220122;1268;22528;-57
2022/05/08 16:48:15;;;;;;;4.10;1.80;;;22.90;47.30;;;;;;220246;1268;22715;-57
2022/05/08 16:53:19;;;;;;;3.20;1.80;;;22.80;47.40;;;;;;220278;1268;25600;-57
2022/05/08 16:58:23;;;;;;;6.60;2.30;;;22.80;47.40;;;;;;220254;1268;25300;-57
2022/05/08 17:03:28;;;;;;;5.20;2.10;;;22.80;47.70;;;;;;220214;1268;25465;-56
2022/05/08 17:08:32;;;;;;;3.50;1.80;;;22.80;47.40;;;;;;220352;1268;24427;-56
2022/05/08 17:13:40;;;;;;;4.30;1.70;;;22.80;47.40;;;;;;220580;1267;24215;-56
2022/05/08 17:18:45;;;;;;;4.10;1.90;;;22.70;47.50;;;;;;220159;1267;22592;-58
2022/05/08 17:23:53;;;;;;;6.60;2.20;;;22.80;47.60;;;;;;220169;1267;25538;-56
2022/05/08 17:28:56;;;;;;;3.60;2.10;;;22.70;48.10;;;;;;220247;1267;22689;-56
2022/05/08 17:34:00;;;;;;;4.50;2.40;;;22.70;47.80;;;;;;219869;1268;23009;-58
2022/05/08 17:39:15;;;;;;;5.00;2.20;;;22.70;47.80;;;;;;219915;1270;25632;-54
2022/05/08 17:44:27;;;;;;;8.80;2.10;;;22.70;47.90;;;;;;220452;1270;24274;-56
2022/05/08 17:49:31;;;;;;;4.30;2.20;;;22.70;48.00;;;;;;220209;1270;22573;-57
2022/05/08 17:54:38;;;;;;;5.90;2.40;;;22.80;47.80;;;;;;220023;1270;24368;-58
2022/05/08 17:59:42;;;;;;;3.20;2.20;;;23.00;47.30;;;;;;220056;1270;22655;-57
2022/05/08 18:10:10;;;;;;;3.30;1.90;;;23.50;46.60;;;;;;220045;1270;22534;-58
2022/05/08 18:15:21;;;;;;;3.00;1.90;;;23.60;46.40;;;;;;220268;1270;24002;-53
2022/05/08 18:20:25;;;;;;;5.10;2.20;;;23.70;46.50;;;;;;220423;1270;22550;-57
2022/05/08 18:25:30;;;;;;;5.60;2.40;;;23.90;46.10;;;;;;220097;1270;24213;-57
2022/05/08 18:30:39;;;;;;;2.90;2.20;;;24.00;46.30;;;;;;220016;1269;25486;-55
2022/05/08 18:35:44;;;;;;;8.60;2.80;;;24.00;45.80;;;;;;220252;1268;22547;-59
2022/05/08 18:40:47;;;;;;;5.00;2.20;;;24.10;45.80;;;;;;220387;1267;25236;-59
2022/05/08 18:45:53;;;;;;;5.90;2.40;;;24.20;46.10;;;;;;220149;1267;24293;-58
2022/05/08 18:50:58;;;;;;;5.90;2.40;;;24.20;46.30;;;;;;220480;1267;25591;-58
2022/05/08 18:56:05;;;;;;;9.20;2.80;;;24.20;46.80;;;;;;220098;1268;26805;-58
2022/05/08 19:01:10;;;;;;;6.70;2.90;;;24.30;47.30;;;;;;220019;1268;25222;-58
2022/05/08 19:06:44;;;;;;;10.20;3.60;;;24.20;47.60;;;;;;220136;1268;22627;-58
2022/05/08 19:11:49;;;;;;;13.30;4.40;;;24.20;48.10;;;;;;220129;1268;22529;-57
2022/05/08 19:16:55;;;;;;;14.60;3.90;;;24.20;48.90;;;;;;220143;1268;25332;-53
2022/05/08 19:22:03;;;;;;;15.40;4.10;;;24.10;49.20;;;;;;219836;1268;332301;-54
2022/05/08 19:27:17;;;;;;;20.10;4.50;;;24.20;49.30;;;;;;220057;1268;25637;-53
2022/05/08 19:38:08;;;;;;;9.90;3.50;;;24.10;49.20;;;;;;220026;1268;25303;-53
2022/05/08 19:43:22;;;;;;;11.70;3.70;;;24.00;49.70;;;;;;220344;1269;24272;-54
2022/05/08 19:48:32;;;;;;;11.80;3.30;;;24.00;49.80;;;;;;220122;1268;24313;-54
2022/05/08 19:53:37;;;;;;;10.70;3.60;;;24.00;50.00;;;;;;219925;1270;25503;-54
2022/05/08 19:58:52;;;;;;;12.10;3.50;;;24.00;50.50;;;;;;220176;1267;24269;-56
2022/05/08 20:04:07;;;;;;;16.10;3.80;;;24.00;50.10;;;;;;220014;1270;24577;-55
2022/05/08 20:09:37;;;;;;;15.30;3.80;;;24.00;50.70;;;;;;220203;1267;24311;-57
2022/05/08 20:15:02;;;;;;;11.90;3.70;;;23.90;51.00;;;;;;220268;1268;23513;-55
2022/05/08 20:25:48;;;;;;;8.50;3.20;;;23.90;51.30;;;;;;220039;1267;23929;-56
2022/05/08 20:30:57;;;;;;;12.40;3.80;;;23.90;51.50;;;;;;220129;1268;22536;-54
2022/05/08 20:36:40;;;;;;;11.20;3.10;;;23.90;51.30;;;;;;220181;1267;22560;-52
2022/05/08 20:41:45;;;;;;;8.20;3.10;;;23.90;51.60;;;;;;220647;1268;22842;-51
2022/05/08 20:46:51;;;;;;;10.10;3.50;;;23.80;51.80;;;;;;220415;1270;24425;-55
2022/05/08 20:51:56;;;;;;;8.80;3.30;;;23.80;51.70;;;;;;220442;1267;22619;-59
2022/05/08 20:57:03;;;;;;;5.70;2.80;;;23.70;52.30;;;;;;220522;1267;24345;-52
2022/05/08 21:02:08;;;;;;;11.70;3.30;;;23.70;52.30;;;;;;220114;1270;22563;-54
2022/05/08 21:12:44;;;;;;;10.10;3.20;;;23.80;55.40;;;;;;220095;1267;26510;-54
2022/05/08 21:18:02;;;;;;;8.80;3.50;;;23.80;55.70;;;;;;220177;1267;25091;-57
2022/05/08 21:23:19;;;;;;;9.10;3.50;;;23.80;54.90;;;;;;219774;1272;25418;-56
2022/05/08 21:28:23;;;;;;;11.40;3.20;;;23.80;54.50;;;;;;219901;1268;24210;-56
2022/05/08 21:33:27;;;;;;;8.50;3.40;;;23.70;54.50;;;;;;219789;1267;26851;-55
2022/05/08 21:38:39;;;;;;;8.80;3.30;;;23.70;54.80;;;;;;220226;1268;24212;-55
2022/05/08 21:43:43;;;;;;;10.50;2.90;;;23.70;54.80;;;;;;220309;1268;22528;-56
2022/05/08 21:48:46;;;;;;;7.70;3.00;;;23.70;54.70;;;;;;220064;1268;22558;-55
2022/05/08 21:53:50;;;;;;;6.30;2.70;;;23.70;54.30;;;;;;219624;1270;22553;-55
2022/05/08 21:58:53;;;;;;;9.90;3.20;;;23.70;54.90;;;;;;219884;1268;22781;-56
2022/05/08 22:03:57;;;;;;;5.10;2.80;;;23.70;54.70;;;;;;220090;1268;25402;-53
2022/05/08 22:09:07;;;;;;;7.70;2.70;;;23.70;54.90;;;;;;220264;1268;22534;-56
2022/05/08 22:14:12;;;;;;;;;;;23.70;54.80;;;;;;219949;1270;24418;-50
2022/05/08 22:19:31;;;;;;;9.40;2.70;;;23.60;54.80;;;;;;219809;1268;25416;-52
2022/05/08 22:24:58;;;;;;;7.90;3.20;;;23.60;54.80;;;;;;220333;1268;24324;-55
2022/05/08 22:30:10;;;;;;;7.40;2.80;;;23.60;54.80;;;;;;219670;1268;22541;-55
2022/05/08 22:35:14;;;;;;;8.50;2.90;;;23.60;54.90;;;;;;219720;1270;24568;-55
2022/05/08 22:40:19;;;;;;;7.60;2.90;;;23.60;54.90;;;;;;220353;1270;23068;-56
2022/05/08 22:45:26;;;;;;;7.60;3.50;;;23.60;54.90;;;;;;219933;1269;22553;-57
2022/05/08 22:50:30;;;;;;;6.10;2.60;;;23.60;54.80;;;;;;219952;1270;22531;-54
2022/05/08 22:55:33;;;;;;;8.10;2.80;;;23.60;54.90;;;;;;219842;1268;22546;-55
2022/05/08 23:00:37;;;;;;;10.90;3.30;;;23.60;55.10;;;;;;220586;1270;22631;-56
2022/05/08 23:05:41;;;;;;;18.30;3.70;;;23.60;56.60;;;;;;220048;1267;24155;-54
2022/05/08 23:10:45;;;;;;;12.70;2.60;;;23.60;55.90;;;;;;220069;1267;24307;-56
2022/05/08 23:15:49;;;;;;;7.80;3.20;;;23.60;55.40;;;;;;220758;1267;22550;-58
2022/05/08 23:20:56;;;;;;;10.10;2.90;;;23.60;55.50;;;;;;220281;1270;22819;-58
2022/05/08 23:26:02;;;;;;;7.80;2.70;;;23.60;55.40;;;;;;220306;1267;22649;-57
2022/05/08 23:31:07;;;;;;;6.30;2.80;;;23.50;55.40;;;;;;220504;1270;22547;-57
2022/05/08 23:36:16;;;;;;;7.30;2.60;;;23.60;55.50;;;;;;220793;1270;25352;-54
2022/05/08 23:41:19;;;;;;;8.90;2.50;;;23.60;55.80;;;;;;220323;1269;23749;-56
2022/05/08 23:46:23;;;;;;;8.10;3.20;;;23.50;55.50;;;;;;220129;1268;25059;-55
2022/05/08 23:51:29;;;;;;;7.40;2.70;;;23.50;55.80;;;;;;220202;1269;25484;-55
2022/05/08 23:56:32;;;;;;;6.30;2.70;;;23.50;55.70;;;;;;220199;1270;23611;-51
